Lyndonville, New York
Current Conditions -  °F | °C
As of 11:54 AM on Wednesday 22 Oct 2014 (Local Time) from KBUF Reporting Station
Overcast Overcast  
Wind Chill: 42°   Ceiling: 1900
Heat Index: 47°   Visibility: 10mi
Dew Point: 39°   Wind: 10mph
Humidity: 74%   Direction: 20°NNE
Pressure: 30.23"   Gusts: NA
Location:  43.33°N, 78.39°W
Report Text: KBUF 221554Z 02009KT 10SM BKN019 OVC030 08/04 A3023 RMK AO2 SLP242 T00830039
Loading
Personal Weather Stations






























Interactive Weather Map
Tropical Storm Tracking
New forecast layout! Learn more

10-Day Weather Forecast

Advertisements
Track Severe Weather on mobile